Terminal Aerodrome Forecast
Issued by NWS

Home | Current Version | Previous Version | Text Only | Print | Product List | Glossary On
Versions: 1 2 3 4 5 6 7 8 9 10 11 12 13 14 15 16 17 18 19 20 21 22 23 24 25 26 27 28 29 30 31 32 33 34 35 36 37 38 39 40 41 42 43 44 45 46 47 48 49 50
000
FTUS43 KLOT 161129
TAFGYY
TAF
KGYY 161129Z 1612/1712 07003KT 4SM -FZRAPL OVC018
     FM161400 09006KT 2SM -SHRA BR SCT004 OVC008
     FM162000 09008KT 1 1/2SM -SHRA BR OVC004
     FM170100 10012KT 1SM SHRA BR OVC003 PROB30 1703/1705 1/2SM TSRA
      FG OVC003CB
     FM170600 VRB03KT 1SM -RADZ BR OVC003=

USA.gov is the U.S. government's official web portal to all federal, state and local government web resources and services.